Terminal Aerodrome Forecast
Issued by NWS

Home | Current Version | Previous Version | Text Only | Print | Product List | Glossary On
Versions: 1 2 3 4 5 6 7 8 9 10 11 12 13 14 15 16 17 18 19 20
000
FTUS44 KLZK 221135
TAFHOT
TAF
KHOT 221135Z 2212/2312 30007KT P6SM -RA SCT020 OVC080
     FM221600 31009KT P6SM VCSH FEW030 BKN050 BKN250
     FM221900 32009G15KT P6SM SCT050 BKN250
     FM230100 33006KT P6SM SCT250=

USA.gov is the U.S. government's official web portal to all federal, state and local government web resources and services.